sensor_id;sensor_type;location;lat;lon;timestamp;P1;durP1;ratioP1;P2;durP2;ratioP2
51010;SDS011;37038;50.182;8.624;2023-02-23T00:02:26;73.15;;;44.92;;
51010;SDS011;37038;50.182;8.624;2023-02-23T00:05:16;69.78;;;47.97;;
51010;SDS011;37038;50.182;8.624;2023-02-23T00:11:10;70.30;;;46.13;;
51010;SDS011;37038;50.182;8.624;2023-02-23T00:13:56;71.38;;;44.20;;
51010;SDS011;37038;50.182;8.624;2023-02-23T00:16:43;67.85;;;45.80;;
51010;SDS011;37038;50.182;8.624;2023-02-23T00:19:29;69.28;;;46.83;;
51010;SDS011;37038;50.182;8.624;2023-02-23T00:21:59;73.18;;;45.67;;
51010;SDS011;37038;50.182;8.624;2023-02-23T00:24:45;72.35;;;47.83;;
51010;SDS011;37038;50.182;8.624;2023-02-23T00:27:32;66.78;;;42.85;;
51010;SDS011;37038;50.182;8.624;2023-02-23T00:30:18;67.47;;;45.38;;
51010;SDS011;37038;50.182;8.624;2023-02-23T00:33:05;67.43;;;44.70;;
51010;SDS011;37038;50.182;8.624;2023-02-23T00:35:33;59.30;;;45.25;;
51010;SDS011;37038;50.182;8.624;2023-02-23T00:38:04;66.85;;;44.13;;
51010;SDS011;37038;50.182;8.624;2023-02-23T00:40:50;68.50;;;45.15;;
51010;SDS011;37038;50.182;8.624;2023-02-23T00:43:39;67.43;;;43.08;;
51010;SDS011;37038;50.182;8.624;2023-02-23T00:46:31;66.93;;;43.97;;
51010;SDS011;37038;50.182;8.624;2023-02-23T00:49:18;61.53;;;41.97;;
51010;SDS011;37038;50.182;8.624;2023-02-23T00:52:04;62.75;;;41.65;;
51010;SDS011;37038;50.182;8.624;2023-02-23T00:54:52;67.25;;;42.05;;
51010;SDS011;37038;50.182;8.624;2023-02-23T00:57:38;62.88;;;42.45;;
51010;SDS011;37038;50.182;8.624;2023-02-23T01:00:24;66.22;;;44.40;;
51010;SDS011;37038;50.182;8.624;2023-02-23T01:03:09;61.08;;;43.13;;
51010;SDS011;37038;50.182;8.624;2023-02-23T01:06:00;62.35;;;41.42;;
51010;SDS011;37038;50.182;8.624;2023-02-23T01:08:50;60.97;;;41.78;;
51010;SDS011;37038;50.182;8.624;2023-02-23T01:11:40;58.50;;;40.85;;
51010;SDS011;37038;50.182;8.624;2023-02-23T01:14:28;59.65;;;41.95;;
51010;SDS011;37038;50.182;8.624;2023-02-23T01:17:15;64.25;;;43.10;;
51010;SDS011;37038;50.182;8.624;2023-02-23T01:20:04;63.15;;;40.72;;
51010;SDS011;37038;50.182;8.624;2023-02-23T01:23:03;70.97;;;46.38;;
51010;SDS011;37038;50.182;8.624;2023-02-23T01:25:51;63.28;;;42.78;;
51010;SDS011;37038;50.182;8.624;2023-02-23T01:28:37;64.78;;;44.75;;
51010;SDS011;37038;50.182;8.624;2023-02-23T01:31:24;64.85;;;43.83;;
51010;SDS011;37038;50.182;8.624;2023-02-23T01:34:11;62.35;;;43.45;;
51010;SDS011;37038;50.182;8.624;2023-02-23T01:36:41;70.95;;;47.15;;
51010;SDS011;37038;50.182;8.624;2023-02-23T01:39:13;70.30;;;46.08;;
51010;SDS011;37038;50.182;8.624;2023-02-23T01:42:03;66.20;;;45.08;;
51010;SDS011;37038;50.182;8.624;2023-02-23T01:47:38;64.22;;;46.10;;
51010;SDS011;37038;50.182;8.624;2023-02-23T01:50:24;60.65;;;44.78;;
51010;SDS011;37038;50.182;8.624;2023-02-23T01:53:12;68.72;;;46.13;;
51010;SDS011;37038;50.182;8.624;2023-02-23T01:56:02;69.03;;;47.08;;
51010;SDS011;37038;50.182;8.624;2023-02-23T01:58:56;70.65;;;48.63;;
51010;SDS011;37038;50.182;8.624;2023-02-23T02:01:47;68.00;;;49.97;;
51010;SDS011;37038;50.182;8.624;2023-02-23T02:04:35;78.18;;;50.90;;
51010;SDS011;37038;50.182;8.624;2023-02-23T02:07:29;73.80;;;49.30;;
51010;SDS011;37038;50.182;8.624;2023-02-23T02:10:19;70.47;;;47.60;;
51010;SDS011;37038;50.182;8.624;2023-02-23T02:13:27;71.80;;;50.67;;
51010;SDS011;37038;50.182;8.624;2023-02-23T02:28:23;85.47;;;55.92;;
51010;SDS011;37038;50.182;8.624;2023-02-23T02:31:36;86.57;;;57.00;;
51010;SDS011;37038;50.182;8.624;2023-02-23T02:37:24;96.45;;;59.88;;
51010;SDS011;37038;50.182;8.624;2023-02-23T02:43:11;94.25;;;60.17;;
51010;SDS011;37038;50.182;8.624;2023-02-23T02:46:16;96.15;;;60.72;;
51010;SDS011;37038;50.182;8.624;2023-02-23T02:49:14;106.32;;;64.05;;
51010;SDS011;37038;50.182;8.624;2023-02-23T02:52:02;100.70;;;58.58;;
51010;SDS011;37038;50.182;8.624;2023-02-23T02:55:13;106.10;;;63.25;;
51010;SDS011;37038;50.182;8.624;2023-02-23T02:58:04;107.53;;;64.57;;
51010;SDS011;37038;50.182;8.624;2023-02-23T03:00:52;98.00;;;59.45;;
51010;SDS011;37038;50.182;8.624;2023-02-23T03:03:58;107.20;;;61.78;;
51010;SDS011;37038;50.182;8.624;2023-02-23T03:07:01;103.78;;;61.47;;
51010;SDS011;37038;50.182;8.624;2023-02-23T03:10:33;104.40;;;63.10;;
51010;SDS011;37038;50.182;8.624;2023-02-23T03:14:03;104.18;;;62.22;;
51010;SDS011;37038;50.182;8.624;2023-02-23T03:26:57;121.90;;;73.00;;
51010;SDS011;37038;50.182;8.624;2023-02-23T03:33:32;139.18;;;74.88;;
51010;SDS011;37038;50.182;8.624;2023-02-23T03:36:49;139.20;;;75.93;;
51010;SDS011;37038;50.182;8.624;2023-02-23T03:40:05;139.23;;;77.85;;
51010;SDS011;37038;50.182;8.624;2023-02-23T03:43:38;143.45;;;78.53;;
51010;SDS011;37038;50.182;8.624;2023-02-23T03:46:51;138.00;;;78.18;;
51010;SDS011;37038;50.182;8.624;2023-02-23T03:49:56;153.15;;;81.32;;
51010;SDS011;37038;50.182;8.624;2023-02-23T03:52:49;161.50;;;86.55;;
51010;SDS011;37038;50.182;8.624;2023-02-23T03:55:56;146.70;;;82.72;;
51010;SDS011;37038;50.182;8.624;2023-02-23T03:59:04;135.05;;;75.90;;
51010;SDS011;37038;50.182;8.624;2023-02-23T04:02:10;138.82;;;82.05;;
51010;SDS011;37038;50.182;8.624;2023-02-23T04:05:19;157.85;;;85.35;;
51010;SDS011;37038;50.182;8.624;2023-02-23T04:08:08;169.50;;;88.15;;
51010;SDS011;37038;50.182;8.624;2023-02-23T04:11:26;144.18;;;83.18;;
51010;SDS011;37038;50.182;8.624;2023-02-23T04:14:55;139.82;;;77.45;;
51010;SDS011;37038;50.182;8.624;2023-02-23T04:17:33;137.63;;;78.95;;
51010;SDS011;37038;50.182;8.624;2023-02-23T04:20:20;130.75;;;75.18;;
51010;SDS011;37038;50.182;8.624;2023-02-23T04:22:48;136.50;;;77.80;;
51010;SDS011;37038;50.182;8.624;2023-02-23T04:25:33;131.20;;;74.20;;
51010;SDS011;37038;50.182;8.624;2023-02-23T04:28:02;126.88;;;74.50;;
51010;SDS011;37038;50.182;8.624;2023-02-23T04:30:47;122.68;;;76.35;;
51010;SDS011;37038;50.182;8.624;2023-02-23T04:33:35;132.13;;;76.22;;
51010;SDS011;37038;50.182;8.624;2023-02-23T04:36:24;150.90;;;82.97;;
51010;SDS011;37038;50.182;8.624;2023-02-23T04:39:11;170.93;;;89.50;;
51010;SDS011;37038;50.182;8.624;2023-02-23T04:41:56;162.48;;;84.78;;
51010;SDS011;37038;50.182;8.624;2023-02-23T04:44:42;133.00;;;71.13;;
51010;SDS011;37038;50.182;8.624;2023-02-23T04:47:29;175.18;;;90.43;;
51010;SDS011;37038;50.182;8.624;2023-02-23T04:50:17;158.90;;;85.30;;
51010;SDS011;37038;50.182;8.624;2023-02-23T04:53:03;159.68;;;88.43;;
51010;SDS011;37038;50.182;8.624;2023-02-23T04:55:49;184.32;;;93.25;;
51010;SDS011;37038;50.182;8.624;2023-02-23T04:58:35;157.35;;;85.25;;
51010;SDS011;37038;50.182;8.624;2023-02-23T05:01:22;136.80;;;77.30;;
51010;SDS011;37038;50.182;8.624;2023-02-23T05:04:08;185.07;;;96.28;;
51010;SDS011;37038;50.182;8.624;2023-02-23T05:06:56;182.68;;;93.03;;
51010;SDS011;37038;50.182;8.624;2023-02-23T05:09:23;167.15;;;87.35;;
51010;SDS011;37038;50.182;8.624;2023-02-23T05:12:10;170.60;;;92.25;;
51010;SDS011;37038;50.182;8.624;2023-02-23T05:14:56;156.32;;;84.18;;
51010;SDS011;37038;50.182;8.624;2023-02-23T05:17:42;151.77;;;86.28;;
51010;SDS011;37038;50.182;8.624;2023-02-23T05:20:28;191.65;;;96.53;;
51010;SDS011;37038;50.182;8.624;2023-02-23T05:23:15;188.55;;;96.07;;
51010;SDS011;37038;50.182;8.624;2023-02-23T05:26:02;161.93;;;83.55;;
51010;SDS011;37038;50.182;8.624;2023-02-23T05:28:54;162.45;;;86.88;;
51010;SDS011;37038;50.182;8.624;2023-02-23T05:31:40;157.40;;;84.47;;
51010;SDS011;37038;50.182;8.624;2023-02-23T05:34:26;188.18;;;95.57;;
51010;SDS011;37038;50.182;8.624;2023-02-23T05:37:12;172.10;;;93.18;;
51010;SDS011;37038;50.182;8.624;2023-02-23T05:40:00;183.13;;;96.25;;
51010;SDS011;37038;50.182;8.624;2023-02-23T05:42:46;209.25;;;100.35;;
51010;SDS011;37038;50.182;8.624;2023-02-23T05:45:26;177.25;;;91.57;;
51010;SDS011;37038;50.182;8.624;2023-02-23T05:48:12;161.30;;;89.43;;
51010;SDS011;37038;50.182;8.624;2023-02-23T05:51:03;173.02;;;90.70;;
51010;SDS011;37038;50.182;8.624;2023-02-23T05:53:32;186.85;;;95.30;;
51010;SDS011;37038;50.182;8.624;2023-02-23T05:56:19;188.15;;;94.38;;
51010;SDS011;37038;50.182;8.624;2023-02-23T05:59:07;168.63;;;87.38;;
51010;SDS011;37038;50.182;8.624;2023-02-23T06:01:53;232.45;;;109.72;;
51010;SDS011;37038;50.182;8.624;2023-02-23T06:04:38;197.73;;;98.88;;
51010;SDS011;37038;50.182;8.624;2023-02-23T06:07:24;223.18;;;104.05;;
51010;SDS011;37038;50.182;8.624;2023-02-23T06:10:12;263.55;;;112.90;;
51010;SDS011;37038;50.182;8.624;2023-02-23T06:12:58;254.13;;;111.38;;
51010;SDS011;37038;50.182;8.624;2023-02-23T06:15:27;187.63;;;95.20;;
51010;SDS011;37038;50.182;8.624;2023-02-23T06:17:55;172.00;;;92.65;;
51010;SDS011;37038;50.182;8.624;2023-02-23T06:20:23;143.95;;;84.43;;
51010;SDS011;37038;50.182;8.624;2023-02-23T06:22:50;158.82;;;88.70;;
51010;SDS011;37038;50.182;8.624;2023-02-23T06:25:18;159.82;;;84.85;;
51010;SDS011;37038;50.182;8.624;2023-02-23T06:27:47;224.23;;;106.43;;
51010;SDS011;37038;50.182;8.624;2023-02-23T06:30:16;235.52;;;108.25;;
51010;SDS011;37038;50.182;8.624;2023-02-23T06:32:44;197.25;;;98.40;;
51010;SDS011;37038;50.182;8.624;2023-02-23T06:35:12;243.38;;;112.72;;
51010;SDS011;37038;50.182;8.624;2023-02-23T06:37:39;158.75;;;84.28;;
51010;SDS011;37038;50.182;8.624;2023-02-23T06:40:25;282.15;;;118.15;;
51010;SDS011;37038;50.182;8.624;2023-02-23T06:43:13;211.15;;;99.55;;
51010;SDS011;37038;50.182;8.624;2023-02-23T06:45:40;223.98;;;100.68;;
51010;SDS011;37038;50.182;8.624;2023-02-23T06:48:31;219.02;;;101.90;;
51010;SDS011;37038;50.182;8.624;2023-02-23T06:51:04;160.80;;;83.85;;
51010;SDS011;37038;50.182;8.624;2023-02-23T06:53:50;213.70;;;97.70;;
51010;SDS011;37038;50.182;8.624;2023-02-23T06:56:37;212.90;;;100.60;;
51010;SDS011;37038;50.182;8.624;2023-02-23T06:59:24;206.50;;;96.22;;
51010;SDS011;37038;50.182;8.624;2023-02-23T07:02:11;312.60;;;124.18;;
51010;SDS011;37038;50.182;8.624;2023-02-23T07:05:00;173.48;;;88.32;;
51010;SDS011;37038;50.182;8.624;2023-02-23T07:07:46;356.52;;;128.85;;
51010;SDS011;37038;50.182;8.624;2023-02-23T07:10:33;226.25;;;100.03;;
51010;SDS011;37038;50.182;8.624;2023-02-23T07:13:19;196.98;;;93.40;;
51010;SDS011;37038;50.182;8.624;2023-02-23T07:16:07;263.38;;;108.82;;
51010;SDS011;37038;50.182;8.624;2023-02-23T07:18:54;298.42;;;116.43;;
51010;SDS011;37038;50.182;8.624;2023-02-23T07:21:40;195.30;;;89.00;;
51010;SDS011;37038;50.182;8.624;2023-02-23T07:24:07;190.55;;;93.97;;
51010;SDS011;37038;50.182;8.624;2023-02-23T07:26:35;288.23;;;116.60;;
51010;SDS011;37038;50.182;8.624;2023-02-23T07:29:21;347.08;;;124.57;;
51010;SDS011;37038;50.182;8.624;2023-02-23T07:31:52;221.27;;;99.65;;
51010;SDS011;37038;50.182;8.624;2023-02-23T07:34:29;266.75;;;109.80;;
51010;SDS011;37038;50.182;8.624;2023-02-23T07:37:17;273.23;;;110.65;;
51010;SDS011;37038;50.182;8.624;2023-02-23T07:40:03;251.60;;;98.60;;
51010;SDS011;37038;50.182;8.624;2023-02-23T07:42:50;316.85;;;115.03;;
51010;SDS011;37038;50.182;8.624;2023-02-23T07:45:36;280.55;;;109.85;;
51010;SDS011;37038;50.182;8.624;2023-02-23T07:48:24;257.33;;;109.72;;
51010;SDS011;37038;50.182;8.624;2023-02-23T07:51:11;207.57;;;91.55;;
51010;SDS011;37038;50.182;8.624;2023-02-23T07:54:01;344.95;;;126.03;;
51010;SDS011;37038;50.182;8.624;2023-02-23T07:56:49;263.08;;;108.72;;
51010;SDS011;37038;50.182;8.624;2023-02-23T07:59:35;258.73;;;104.43;;
51010;SDS011;37038;50.182;8.624;2023-02-23T08:02:21;176.40;;;90.15;;
51010;SDS011;37038;50.182;8.624;2023-02-23T08:05:08;205.30;;;90.85;;
51010;SDS011;37038;50.182;8.624;2023-02-23T08:07:54;258.40;;;103.13;;
51010;SDS011;37038;50.182;8.624;2023-02-23T08:10:43;200.65;;;93.40;;
51010;SDS011;37038;50.182;8.624;2023-02-23T08:13:30;225.15;;;97.25;;
51010;SDS011;37038;50.182;8.624;2023-02-23T08:16:20;216.75;;;98.63;;
51010;SDS011;37038;50.182;8.624;2023-02-23T08:19:05;184.05;;;89.00;;
51010;SDS011;37038;50.182;8.624;2023-02-23T08:21:43;254.75;;;107.10;;
51010;SDS011;37038;50.182;8.624;2023-02-23T08:24:29;188.07;;;92.10;;
51010;SDS011;37038;50.182;8.624;2023-02-23T08:27:19;183.75;;;86.18;;
51010;SDS011;37038;50.182;8.624;2023-02-23T08:30:07;167.20;;;84.38;;
51010;SDS011;37038;50.182;8.624;2023-02-23T08:32:55;154.38;;;82.30;;
51010;SDS011;37038;50.182;8.624;2023-02-23T08:35:41;184.15;;;87.05;;
51010;SDS011;37038;50.182;8.624;2023-02-23T08:38:29;199.75;;;92.93;;
51010;SDS011;37038;50.182;8.624;2023-02-23T08:41:15;180.00;;;88.90;;
51010;SDS011;37038;50.182;8.624;2023-02-23T08:44:01;181.32;;;88.50;;
51010;SDS011;37038;50.182;8.624;2023-02-23T08:46:47;192.00;;;89.65;;
51010;SDS011;37038;50.182;8.624;2023-02-23T08:49:17;148.93;;;75.90;;
51010;SDS011;37038;50.182;8.624;2023-02-23T08:51:47;184.00;;;90.10;;
51010;SDS011;37038;50.182;8.624;2023-02-23T08:54:33;166.85;;;84.35;;
51010;SDS011;37038;50.182;8.624;2023-02-23T08:57:19;128.93;;;70.75;;
51010;SDS011;37038;50.182;8.624;2023-02-23T09:00:06;119.85;;;67.75;;
51010;SDS011;37038;50.182;8.624;2023-02-23T09:02:55;137.85;;;72.43;;
51010;SDS011;37038;50.182;8.624;2023-02-23T09:05:41;125.78;;;69.18;;
51010;SDS011;37038;50.182;8.624;2023-02-23T09:08:28;128.48;;;71.85;;
51010;SDS011;37038;50.182;8.624;2023-02-23T09:11:14;108.40;;;61.92;;
51010;SDS011;37038;50.182;8.624;2023-02-23T09:14:00;134.95;;;70.88;;
51010;SDS011;37038;50.182;8.624;2023-02-23T09:16:47;116.45;;;65.40;;
51010;SDS011;37038;50.182;8.624;2023-02-23T09:19:33;118.40;;;64.78;;
51010;SDS011;37038;50.182;8.624;2023-02-23T09:22:20;121.00;;;65.63;;
51010;SDS011;37038;50.182;8.624;2023-02-23T09:25:06;108.07;;;62.80;;
51010;SDS011;37038;50.182;8.624;2023-02-23T09:27:54;129.77;;;68.57;;
51010;SDS011;37038;50.182;8.624;2023-02-23T09:30:42;108.72;;;62.80;;
51010;SDS011;37038;50.182;8.624;2023-02-23T09:33:30;101.43;;;61.45;;
51010;SDS011;37038;50.182;8.624;2023-02-23T09:36:18;108.93;;;62.53;;
51010;SDS011;37038;50.182;8.624;2023-02-23T09:39:07;106.28;;;61.20;;
51010;SDS011;37038;50.182;8.624;2023-02-23T09:42:02;117.80;;;65.55;;
51010;SDS011;37038;50.182;8.624;2023-02-23T09:45:03;116.88;;;63.75;;
51010;SDS011;37038;50.182;8.624;2023-02-23T09:48:04;99.32;;;59.80;;
51010;SDS011;37038;50.182;8.624;2023-02-23T09:50:36;94.05;;;54.42;;
51010;SDS011;37038;50.182;8.624;2023-02-23T09:56:36;80.82;;;50.45;;
51010;SDS011;37038;50.182;8.624;2023-02-23T09:59:34;83.85;;;51.90;;
51010;SDS011;37038;50.182;8.624;2023-02-23T10:02:55;77.60;;;47.60;;
51010;SDS011;37038;50.182;8.624;2023-02-23T10:05:24;75.22;;;47.88;;
51010;SDS011;37038;50.182;8.624;2023-02-23T10:08:32;76.03;;;49.35;;
51010;SDS011;37038;50.182;8.624;2023-02-23T10:11:40;84.75;;;50.85;;
51010;SDS011;37038;50.182;8.624;2023-02-23T10:18:11;85.68;;;50.42;;
51010;SDS011;37038;50.182;8.624;2023-02-23T10:21:14;76.22;;;47.67;;
51010;SDS011;37038;50.182;8.624;2023-02-23T10:24:11;73.88;;;46.35;;
51010;SDS011;37038;50.182;8.624;2023-02-23T10:27:07;74.57;;;48.88;;
51010;SDS011;37038;50.182;8.624;2023-02-23T10:29:42;65.32;;;45.20;;
51010;SDS011;37038;50.182;8.624;2023-02-23T10:32:39;66.35;;;45.40;;
51010;SDS011;37038;50.182;8.624;2023-02-23T10:35:40;62.10;;;42.10;;
51010;SDS011;37038;50.182;8.624;2023-02-23T10:38:26;74.40;;;44.97;;
51010;SDS011;37038;50.182;8.624;2023-02-23T10:41:13;65.38;;;41.90;;
51010;SDS011;37038;50.182;8.624;2023-02-23T10:43:59;65.00;;;39.88;;
51010;SDS011;37038;50.182;8.624;2023-02-23T10:47:07;56.47;;;38.85;;
51010;SDS011;37038;50.182;8.624;2023-02-23T10:49:42;49.30;;;34.20;;
51010;SDS011;37038;50.182;8.624;2023-02-23T10:52:39;46.95;;;33.67;;
51010;SDS011;37038;50.182;8.624;2023-02-23T10:55:30;46.75;;;32.20;;
51010;SDS011;37038;50.182;8.624;2023-02-23T10:58:17;50.13;;;34.58;;
51010;SDS011;37038;50.182;8.624;2023-02-23T11:01:04;54.28;;;36.92;;
51010;SDS011;37038;50.182;8.624;2023-02-23T11:03:52;49.92;;;33.55;;
51010;SDS011;37038;50.182;8.624;2023-02-23T11:06:33;52.13;;;34.95;;
51010;SDS011;37038;50.182;8.624;2023-02-23T11:09:24;53.08;;;35.95;;
51010;SDS011;37038;50.182;8.624;2023-02-23T11:12:36;49.28;;;34.20;;
51010;SDS011;37038;50.182;8.624;2023-02-23T11:15:29;48.97;;;34.55;;
51010;SDS011;37038;50.182;8.624;2023-02-23T11:18:34;49.72;;;34.60;;
51010;SDS011;37038;50.182;8.624;2023-02-23T11:21:27;48.97;;;34.72;;
51010;SDS011;37038;50.182;8.624;2023-02-23T11:27:17;41.78;;;31.02;;
51010;SDS011;37038;50.182;8.624;2023-02-23T11:30:09;40.35;;;29.25;;
51010;SDS011;37038;50.182;8.624;2023-02-23T11:32:59;39.15;;;29.33;;
51010;SDS011;37038;50.182;8.624;2023-02-23T11:35:58;37.13;;;27.73;;
51010;SDS011;37038;50.182;8.624;2023-02-23T11:42:14;32.03;;;22.95;;
51010;SDS011;37038;50.182;8.624;2023-02-23T11:45:01;30.48;;;22.15;;
51010;SDS011;37038;50.182;8.624;2023-02-23T11:47:55;32.55;;;23.20;;
51010;SDS011;37038;50.182;8.624;2023-02-23T11:50:45;32.45;;;23.42;;
51010;SDS011;37038;50.182;8.624;2023-02-23T11:53:37;30.17;;;22.25;;
51010;SDS011;37038;50.182;8.624;2023-02-23T11:56:32;30.40;;;22.35;;
51010;SDS011;37038;50.182;8.624;2023-02-23T11:59:29;33.53;;;25.00;;
51010;SDS011;37038;50.182;8.624;2023-02-23T12:05:08;38.28;;;23.85;;
51010;SDS011;37038;50.182;8.624;2023-02-23T12:08:10;32.60;;;23.88;;
51010;SDS011;37038;50.182;8.624;2023-02-23T12:11:01;33.20;;;23.70;;
51010;SDS011;37038;50.182;8.624;2023-02-23T12:13:54;32.50;;;23.58;;
51010;SDS011;37038;50.182;8.624;2023-02-23T12:16:40;34.13;;;24.35;;
51010;SDS011;37038;50.182;8.624;2023-02-23T12:19:33;30.35;;;21.67;;
51010;SDS011;37038;50.182;8.624;2023-02-23T12:22:28;30.83;;;22.15;;
51010;SDS011;37038;50.182;8.624;2023-02-23T12:25:26;29.90;;;21.13;;
51010;SDS011;37038;50.182;8.624;2023-02-23T12:28:27;31.98;;;24.02;;
51010;SDS011;37038;50.182;8.624;2023-02-23T12:31:35;35.95;;;25.45;;
51010;SDS011;37038;50.182;8.624;2023-02-23T12:34:25;32.55;;;24.38;;
51010;SDS011;37038;50.182;8.624;2023-02-23T12:37:33;34.42;;;24.70;;
51010;SDS011;37038;50.182;8.624;2023-02-23T12:40:25;39.22;;;25.67;;
51010;SDS011;37038;50.182;8.624;2023-02-23T12:43:24;34.28;;;23.85;;
51010;SDS011;37038;50.182;8.624;2023-02-23T12:46:17;24.52;;;17.52;;
51010;SDS011;37038;50.182;8.624;2023-02-23T12:52:30;20.40;;;15.25;;
51010;SDS011;37038;50.182;8.624;2023-02-23T12:55:16;19.27;;;12.32;;
51010;SDS011;37038;50.182;8.624;2023-02-23T13:01:22;13.48;;;10.43;;
51010;SDS011;37038;50.182;8.624;2023-02-23T13:07:19;10.60;;;8.23;;
51010;SDS011;37038;50.182;8.624;2023-02-23T13:13:50;10.93;;;8.63;;
51010;SDS011;37038;50.182;8.624;2023-02-23T13:16:56;14.60;;;9.57;;
51010;SDS011;37038;50.182;8.624;2023-02-23T13:19:52;14.63;;;9.43;;
51010;SDS011;37038;50.182;8.624;2023-02-23T13:22:53;12.70;;;9.38;;
51010;SDS011;37038;50.182;8.624;2023-02-23T13:31:44;13.43;;;10.38;;
51010;SDS011;37038;50.182;8.624;2023-02-23T13:34:33;14.77;;;11.00;;
51010;SDS011;37038;50.182;8.624;2023-02-23T13:37:40;15.50;;;10.13;;
51010;SDS011;37038;50.182;8.624;2023-02-23T13:44:36;16.60;;;10.82;;
51010;SDS011;37038;50.182;8.624;2023-02-23T13:47:12;13.13;;;9.77;;
51010;SDS011;37038;50.182;8.624;2023-02-23T13:53:31;14.93;;;10.52;;
51010;SDS011;37038;50.182;8.624;2023-02-23T13:56:27;13.73;;;10.50;;
51010;SDS011;37038;50.182;8.624;2023-02-23T13:59:22;18.17;;;11.02;;
51010;SDS011;37038;50.182;8.624;2023-02-23T14:05:22;14.82;;;11.05;;
51010;SDS011;37038;50.182;8.624;2023-02-23T14:08:19;17.13;;;12.43;;
51010;SDS011;37038;50.182;8.624;2023-02-23T14:20:13;17.95;;;12.57;;
51010;SDS011;37038;50.182;8.624;2023-02-23T14:23:15;16.75;;;12.18;;
51010;SDS011;37038;50.182;8.624;2023-02-23T14:26:39;18.58;;;12.70;;
51010;SDS011;37038;50.182;8.624;2023-02-23T14:29:15;19.35;;;13.80;;
51010;SDS011;37038;50.182;8.624;2023-02-23T14:35:02;22.85;;;16.50;;
51010;SDS011;37038;50.182;8.624;2023-02-23T14:38:14;22.55;;;14.70;;
51010;SDS011;37038;50.182;8.624;2023-02-23T14:41:10;16.23;;;13.50;;
51010;SDS011;37038;50.182;8.624;2023-02-23T14:44:06;19.45;;;13.55;;
51010;SDS011;37038;50.182;8.624;2023-02-23T14:47:15;17.17;;;12.60;;
51010;SDS011;37038;50.182;8.624;2023-02-23T14:50:05;20.88;;;14.65;;
51010;SDS011;37038;50.182;8.624;2023-02-23T14:52:59;19.77;;;14.52;;
51010;SDS011;37038;50.182;8.624;2023-02-23T14:55:28;21.67;;;15.57;;
51010;SDS011;37038;50.182;8.624;2023-02-23T14:58:36;21.77;;;15.10;;
51010;SDS011;37038;50.182;8.624;2023-02-23T15:01:35;22.50;;;15.35;;
51010;SDS011;37038;50.182;8.624;2023-02-23T15:04:25;22.77;;;16.05;;
51010;SDS011;37038;50.182;8.624;2023-02-23T15:07:16;21.10;;;14.25;;
51010;SDS011;37038;50.182;8.624;2023-02-23T15:10:11;18.60;;;13.65;;
51010;SDS011;37038;50.182;8.624;2023-02-23T15:12:46;17.52;;;12.73;;
51010;SDS011;37038;50.182;8.624;2023-02-23T15:15:34;18.70;;;14.18;;
51010;SDS011;37038;50.182;8.624;2023-02-23T15:22:02;17.90;;;13.88;;
51010;SDS011;37038;50.182;8.624;2023-02-23T15:24:49;17.65;;;14.00;;
51010;SDS011;37038;50.182;8.624;2023-02-23T15:27:38;17.38;;;13.35;;
51010;SDS011;37038;50.182;8.624;2023-02-23T15:30:30;18.95;;;12.90;;
51010;SDS011;37038;50.182;8.624;2023-02-23T15:33:08;19.70;;;13.45;;
51010;SDS011;37038;50.182;8.624;2023-02-23T15:39:16;18.92;;;13.75;;
51010;SDS011;37038;50.182;8.624;2023-02-23T15:42:05;21.02;;;12.63;;
51010;SDS011;37038;50.182;8.624;2023-02-23T15:44:59;17.27;;;13.05;;
51010;SDS011;37038;50.182;8.624;2023-02-23T15:47:43;18.00;;;13.30;;
51010;SDS011;37038;50.182;8.624;2023-02-23T15:50:32;20.13;;;13.45;;
51010;SDS011;37038;50.182;8.624;2023-02-23T15:56:15;18.60;;;13.30;;
51010;SDS011;37038;50.182;8.624;2023-02-23T15:58:54;19.65;;;14.40;;
51010;SDS011;37038;50.182;8.624;2023-02-23T16:01:27;19.52;;;13.75;;
51010;SDS011;37038;50.182;8.624;2023-02-23T16:04:16;20.90;;;14.52;;
51010;SDS011;37038;50.182;8.624;2023-02-23T16:07:25;18.52;;;13.27;;
51010;SDS011;37038;50.182;8.624;2023-02-23T16:13:08;18.23;;;12.77;;
51010;SDS011;37038;50.182;8.624;2023-02-23T16:15:38;15.65;;;12.13;;
51010;SDS011;37038;50.182;8.624;2023-02-23T16:18:37;20.27;;;14.02;;
51010;SDS011;37038;50.182;8.624;2023-02-23T16:21:25;18.10;;;13.68;;
51010;SDS011;37038;50.182;8.624;2023-02-23T16:24:16;19.98;;;14.80;;
51010;SDS011;37038;50.182;8.624;2023-02-23T16:27:06;19.15;;;13.10;;
51010;SDS011;37038;50.182;8.624;2023-02-23T16:29:57;19.92;;;14.88;;
51010;SDS011;37038;50.182;8.624;2023-02-23T16:33:00;15.88;;;12.88;;
51010;SDS011;37038;50.182;8.624;2023-02-23T16:36:11;19.63;;;14.18;;
51010;SDS011;37038;50.182;8.624;2023-02-23T16:39:03;22.92;;;14.45;;
51010;SDS011;37038;50.182;8.624;2023-02-23T16:41:46;17.48;;;14.43;;
51010;SDS011;37038;50.182;8.624;2023-02-23T16:44:32;20.73;;;15.60;;
51010;SDS011;37038;50.182;8.624;2023-02-23T16:47:43;21.10;;;13.90;;
51010;SDS011;37038;50.182;8.624;2023-02-23T16:50:23;19.85;;;14.13;;
51010;SDS011;37038;50.182;8.624;2023-02-23T16:52:53;16.02;;;13.00;;
51010;SDS011;37038;50.182;8.624;2023-02-23T16:55:44;18.65;;;12.70;;
51010;SDS011;37038;50.182;8.624;2023-02-23T16:58:33;19.30;;;12.80;;
51010;SDS011;37038;50.182;8.624;2023-02-23T17:01:01;18.40;;;13.93;;
51010;SDS011;37038;50.182;8.624;2023-02-23T17:03:49;21.75;;;15.15;;
51010;SDS011;37038;50.182;8.624;2023-02-23T17:06:38;19.67;;;15.30;;
51010;SDS011;37038;50.182;8.624;2023-02-23T17:09:27;23.25;;;16.77;;
51010;SDS011;37038;50.182;8.624;2023-02-23T17:12:14;23.15;;;17.48;;
51010;SDS011;37038;50.182;8.624;2023-02-23T17:15:13;34.25;;;26.77;;
51010;SDS011;37038;50.182;8.624;2023-02-23T17:18:02;26.85;;;19.92;;
51010;SDS011;37038;50.182;8.624;2023-02-23T17:20:45;27.77;;;21.45;;
51010;SDS011;37038;50.182;8.624;2023-02-23T17:23:32;25.50;;;18.65;;
51010;SDS011;37038;50.182;8.624;2023-02-23T17:26:13;33.15;;;21.52;;
51010;SDS011;37038;50.182;8.624;2023-02-23T17:29:01;29.35;;;22.42;;
51010;SDS011;37038;50.182;8.624;2023-02-23T17:31:33;29.45;;;21.80;;
51010;SDS011;37038;50.182;8.624;2023-02-23T17:34:20;27.75;;;20.90;;
51010;SDS011;37038;50.182;8.624;2023-02-23T17:37:09;27.45;;;20.13;;
51010;SDS011;37038;50.182;8.624;2023-02-23T17:39:56;29.20;;;21.25;;
51010;SDS011;37038;50.182;8.624;2023-02-23T17:42:47;28.52;;;20.83;;
51010;SDS011;37038;50.182;8.624;2023-02-23T17:45:32;27.15;;;20.30;;
51010;SDS011;37038;50.182;8.624;2023-02-23T17:48:11;26.60;;;21.38;;
51010;SDS011;37038;50.182;8.624;2023-02-23T17:50:38;28.27;;;20.88;;
51010;SDS011;37038;50.182;8.624;2023-02-23T17:53:06;25.77;;;20.27;;
51010;SDS011;37038;50.182;8.624;2023-02-23T17:55:33;33.13;;;23.23;;
51010;SDS011;37038;50.182;8.624;2023-02-23T17:58:19;32.78;;;24.20;;
51010;SDS011;37038;50.182;8.624;2023-02-23T18:00:47;36.40;;;26.38;;
51010;SDS011;37038;50.182;8.624;2023-02-23T18:03:35;37.92;;;27.02;;
51010;SDS011;37038;50.182;8.624;2023-02-23T18:06:21;39.67;;;26.67;;
51010;SDS011;37038;50.182;8.624;2023-02-23T18:09:08;36.17;;;26.15;;
51010;SDS011;37038;50.182;8.624;2023-02-23T18:12:02;39.20;;;26.70;;